Time;durP1;ratioP1;P1;durP2;ratioP2;P2;SDS_P1;SDS_P2;PMS_P1;PMS_P2;Temp;Humidity;BMP_temperature;BMP_pressure;BME280_temperature;BME280_humidity;BME280_pressure;Samples;Min_cycle;Max_cycle;Signal;HPM_P1;HPM_P2
2022/06/13 00:02:05;;;;;;;6.60;5.23;;;;;;;19.35;100.00;98924.91;4973390;28;20223;-83
2022/06/13 00:04:31;;;;;;;7.27;5.10;;;;;;;19.86;100.00;99008.00;4973254;28;20212;-84
2022/06/13 00:06:56;;;;;;;6.23;5.20;;;;;;;19.94;100.00;99009.69;4973568;28;20565;-83
2022/06/13 00:09:21;;;;;;;6.20;4.80;;;;;;;19.54;100.00;98963.44;4973368;28;20243;-83
2022/06/13 00:11:47;;;;;;;7.83;5.00;;;;;;;19.87;100.00;99009.72;4973619;28;20192;-83
2022/06/13 00:14:13;;;;;;;6.47;5.37;;;;;;;19.91;100.00;99014.84;4973475;28;20175;-83
2022/06/13 00:16:39;;;;;;;7.93;5.23;;;;;;;19.93;100.00;99004.56;4973254;28;20172;-82
2022/06/13 00:19:04;;;;;;;8.07;4.67;;;;;;;18.80;100.00;98820.47;4973395;28;20171;-83
2022/06/13 00:21:33;;;;;;;6.30;4.97;;;;;;;19.87;100.00;99002.88;4973470;28;20255;-81
2022/06/13 00:24:01;;;;;;;6.57;4.83;;;;;;;19.83;100.00;99005.44;4973346;28;20215;-83
2022/06/13 00:26:29;;;;;;;6.00;4.80;;;;;;;18.19;100.00;98722.91;4973221;28;20647;-83
2022/06/13 00:28:55;;;;;;;7.10;5.30;;;;;;;19.94;100.00;99001.16;4972953;28;20196;-82
2022/06/13 00:31:21;;;;;;;5.77;4.90;;;;;;;19.94;100.00;99007.13;4972903;28;20554;-83
2022/06/13 00:33:47;;;;;;;5.47;4.50;;;;;;;19.86;100.00;99003.69;4972781;28;20172;-83
2022/06/13 00:36:12;;;;;;;8.67;5.20;;;;;;;19.75;100.00;98999.44;4973034;28;20164;-83
2022/06/13 00:38:38;;;;;;;5.43;4.27;;;;;;;19.62;100.00;98951.47;4979812;28;20164;-85
2022/06/13 00:41:14;;;;;;;8.33;4.70;;;;;;;19.89;100.00;98987.44;4979634;28;20179;-84
2022/06/13 00:43:42;;;;;;;5.93;4.80;;;;;;;19.14;100.00;98842.75;4979909;28;20171;-83
2022/06/13 00:46:28;;;;;;;5.27;4.57;;;;;;;19.96;100.00;98991.72;4977233;28;20176;-83
2022/06/13 00:49:01;;;;;;;5.67;4.70;;;;;;;20.09;100.00;98990.84;4981342;28;20195;-81
2022/06/13 00:51:29;;;;;;;6.60;4.70;;;;;;;19.73;100.00;98955.75;4974500;28;20171;-81
2022/06/13 00:53:54;;;;;;;5.17;4.60;;;;;;;20.16;100.00;99010.53;4973538;28;20235;-83
2022/06/13 00:56:23;;;;;;;5.37;4.80;;;;;;;19.30;100.00;98864.16;4956044;28;20176;-82
2022/06/13 00:59:03;;;;;;;6.37;4.70;;;;;;;19.67;100.00;98917.22;4973137;28;20252;-83
2022/06/13 01:01:31;;;;;;;7.10;4.80;;;;;;;16.62;100.00;98417.88;4973033;28;20230;-82
2022/06/13 01:03:58;;;;;;;9.53;4.97;;;;;;;20.35;100.00;99014.88;4971670;28;20631;-83
2022/06/13 01:06:26;;;;;;;7.40;4.80;;;;;;;19.17;100.00;98808.53;4973312;28;20172;-83
2022/06/13 01:08:52;;;;;;;7.87;4.60;;;;;;;19.53;100.00;98869.31;4973265;28;20191;-82
2022/06/13 01:11:22;;;;;;;7.00;4.90;;;;;;;20.38;100.00;99009.69;4973781;28;20175;-82
2022/06/13 01:14:26;;;;;;;6.77;4.60;;;;;;;20.25;100.00;99012.28;4973486;28;20167;-82
2022/06/13 01:17:12;;;;;;;5.80;4.60;;;;;;;20.09;100.00;99006.28;4973073;28;20168;-83
2022/06/13 01:20:01;;;;;;;6.80;4.70;;;;;;;20.15;100.00;99006.28;4972654;28;20732;-83
2022/06/13 01:22:34;;;;;;;8.50;4.80;;;;;;;20.14;100.00;99019.97;4972911;28;20164;-82
2022/06/13 01:25:14;;;;;;;6.73;5.20;;;;;;;20.15;100.00;99021.69;4976510;28;20156;-82
2022/06/13 01:27:45;;;;;;;8.43;5.10;;;;;;;20.29;100.00;99026.84;4976410;28;20258;-84
2022/06/13 01:30:48;;;;;;;5.03;4.53;;;;;;;20.08;100.00;99025.13;4976446;28;20195;-83
2022/06/13 01:33:24;;;;;;;5.60;5.00;;;;;;;19.77;100.00;98972.03;4976335;28;20182;-83
2022/06/13 01:35:56;;;;;;;5.93;4.90;;;;;;;19.98;100.00;99023.41;4976163;28;20174;-84
2022/06/13 01:38:33;;;;;;;6.77;5.13;;;;;;;19.87;100.00;99022.56;4977137;28;20625;-83
2022/06/13 01:41:14;;;;;;;6.20;5.17;;;;;;;19.63;100.00;98979.75;4976071;28;20266;-84
2022/06/13 01:43:48;;;;;;;8.40;4.83;;;;;;;20.04;100.00;99026.00;4977754;28;20163;-83
2022/06/13 01:46:34;;;;;;;8.93;4.97;;;;;;;19.84;100.00;99027.69;4977058;28;20181;-83
2022/06/13 01:49:09;;;;;;;5.37;4.83;;;;;;;19.84;100.00;99030.25;4977125;28;20195;-84
2022/06/13 01:51:51;;;;;;;6.53;4.77;;;;;;;19.51;100.00;98960.88;4978080;28;20167;-83
2022/06/13 01:54:28;;;;;;;6.93;4.93;;;;;;;19.91;100.00;99030.25;4977672;28;20267;-83
2022/06/13 01:57:26;;;;;;;5.70;4.87;;;;;;;19.82;100.00;99031.97;4977341;28;20160;-83
2022/06/13 02:00:03;;;;;;;6.10;5.10;;;;;;;19.60;100.00;99013.13;4980685;28;20160;-83
2022/06/13 02:02:32;;;;;;;7.13;5.33;;;;;;;19.15;100.00;98965.06;4980784;28;20302;-84
2022/06/13 02:05:20;;;;;;;5.60;5.00;;;;;;;16.64;100.00;98549.09;4979543;28;20725;-83
2022/06/13 02:07:51;;;;;;;8.77;5.23;;;;;;;19.55;100.00;99008.81;4983397;28;20240;-84
2022/06/13 02:10:21;;;;;;;8.07;5.10;;;;;;;19.49;100.00;99001.97;4986277;28;20569;-84
2022/06/13 02:12:52;;;;;;;7.60;5.20;;;;;;;19.28;100.00;99002.72;4980354;28;20629;-84
2022/06/13 02:15:26;;;;;;;6.77;5.30;;;;;;;18.18;100.00;98861.28;4980673;28;20164;-82
2022/06/13 02:18:02;;;;;;;10.73;5.50;;;;;;;18.74;100.00;98933.28;4981237;28;20171;-85
2022/06/13 02:20:33;;;;;;;7.20;5.10;;;;;;;18.81;100.00;98963.25;4982362;28;20210;-83
2022/06/13 02:23:06;;;;;;;8.83;5.43;;;;;;;18.57;100.00;98950.34;4982835;28;20199;-84
2022/06/13 02:25:36;;;;;;;9.40;5.60;;;;;;;18.92;100.00;99000.06;4981959;28;20625;-84
2022/06/13 02:28:17;;;;;;;8.60;5.77;;;;;;;18.81;100.00;98996.59;4982022;28;20613;-83
2022/06/13 02:30:49;;;;;;;7.23;5.20;;;;;;;17.46;100.00;98772.06;4983348;28;20188;-85
2022/06/13 02:33:26;;;;;;;6.97;5.43;;;;;;;16.38;100.00;98596.56;4980527;28;20168;-85
2022/06/13 02:35:57;;;;;;;14.57;5.90;;;;;;;16.25;100.00;98551.34;4977291;28;20159;-83
2022/06/13 02:38:41;;;;;;;8.73;5.50;;;;;;;17.67;100.00;98780.75;4975689;28;20519;-83
2022/06/13 02:41:13;;;;;;;8.40;5.93;;;;;;;18.24;100.00;98889.47;4975172;28;20648;-83
2022/06/13 02:43:47;;;;;;;10.77;5.47;;;;;;;18.56;100.00;98977.69;4974844;28;20168;-82
2022/06/13 02:46:31;;;;;;;7.13;5.50;;;;;;;18.28;100.00;98911.72;4975724;28;20234;-84
2022/06/13 02:49:26;;;;;;;12.13;5.33;;;;;;;18.75;100.00;99007.69;4975687;28;20196;-83
2022/06/13 02:52:00;;;;;;;13.13;5.57;;;;;;;17.93;100.00;98860.28;4974792;28;20161;-84
2022/06/13 02:54:34;;;;;;;8.83;5.70;;;;;;;18.71;100.00;99000.81;4975001;28;20546;-84
2022/06/13 02:57:28;;;;;;;7.90;5.73;;;;;;;18.68;100.00;98997.38;4975419;28;20214;-81
2022/06/13 03:00:11;;;;;;;8.13;5.70;;;;;;;17.73;100.00;98846.50;4975811;28;20153;-83
2022/06/13 03:02:44;;;;;;;6.37;5.60;;;;;;;18.76;100.00;98999.13;4974832;28;20254;-85
2022/06/13 03:05:37;;;;;;;9.03;5.60;;;;;;;18.66;100.00;98994.81;4973609;28;20171;-84
2022/06/13 03:08:37;;;;;;;9.73;5.50;;;;;;;18.49;100.00;98977.63;4975338;28;20168;-83
2022/06/13 03:11:23;;;;;;;8.87;5.50;;;;;;;18.74;100.00;99013.66;4974149;28;20596;-83
2022/06/13 03:14:17;;;;;;;7.73;5.67;;;;;;;17.47;100.00;98848.00;4974038;28;20199;-83
2022/06/13 03:16:53;;;;;;;9.93;5.83;;;;;;;18.41;100.00;98997.19;4974667;28;20648;-83
2022/06/13 03:19:33;;;;;;;6.77;5.50;;;;;;;18.53;100.00;99013.56;4974294;28;20160;-83
2022/06/13 03:22:05;;;;;;;9.90;6.33;;;;;;;18.50;100.00;99007.53;4974567;28;20170;-83
2022/06/13 03:24:42;;;;;;;7.53;5.70;;;;;;;18.42;100.00;99006.59;4976657;28;20629;-84
2022/06/13 03:27:14;;;;;;;7.60;5.73;;;;;;;17.60;100.00;98875.44;4976788;28;20195;-84
2022/06/13 03:29:50;;;;;;;9.80;5.60;;;;;;;18.43;100.00;99011.72;4975115;28;20203;-85
2022/06/13 03:32:22;;;;;;;7.70;5.50;;;;;;;16.67;100.00;98717.78;4975127;28;20202;-85
2022/06/13 03:34:53;;;;;;;5.63;5.00;;;;;;;18.56;100.00;99017.84;4975522;28;20173;-84
2022/06/13 03:37:44;;;;;;;6.90;5.40;;;;;;;18.66;100.00;99019.59;4976343;28;20191;-84
2022/06/13 03:40:21;;;;;;;7.27;5.43;;;;;;;18.29;100.00;98934.75;4897748;29;20274;-84
2022/06/13 03:42:54;;;;;;;12.10;5.23;;;;;;;18.14;100.00;98892.84;4882028;29;20674;-83
2022/06/13 03:45:30;;;;;;;7.83;5.37;;;;;;;19.02;100.00;99027.47;4897119;29;20190;-84
2022/06/13 03:48:05;;;;;;;8.67;5.83;;;;;;;19.07;100.00;99018.06;4897760;29;20213;-84
2022/06/13 03:51:07;;;;;;;8.17;5.50;;;;;;;19.11;100.00;99026.66;4897963;29;20226;-84
2022/06/13 03:53:50;;;;;;;10.00;5.90;;;;;;;18.57;100.00;98956.31;4804908;29;20307;-84
2022/06/13 03:56:20;;;;;;;6.83;5.67;;;;;;;17.82;100.00;98830.34;4804897;29;20180;-84
2022/06/13 03:58:55;;;;;;;8.57;5.60;;;;;;;17.92;100.00;98875.63;4806248;29;20223;-84
2022/06/13 04:01:27;;;;;;;7.43;5.83;;;;;;;18.56;100.00;98972.56;4810627;29;20236;-85
2022/06/13 04:03:55;;;;;;;7.83;5.73;;;;;;;19.10;100.00;99027.50;4823104;29;20250;-86
2022/06/13 04:06:39;;;;;;;10.23;5.97;;;;;;;19.42;100.00;99025.91;4823761;29;20225;-84
2022/06/13 04:09:13;;;;;;;9.17;5.90;;;;;;;18.98;100.00;98971.84;4822768;29;20265;-84
2022/06/13 04:12:00;;;;;;;6.73;5.80;;;;;;;19.29;100.00;99039.53;4823463;29;20204;-85
2022/06/13 04:14:44;;;;;;;8.17;5.90;;;;;;;19.41;100.00;99037.91;4800362;29;20609;-84
2022/06/13 04:17:13;;;;;;;7.13;6.07;;;;;;;19.54;100.00;99045.63;4858313;29;20201;-84
2022/06/13 04:20:10;;;;;;;18.20;6.67;;;;;;;19.45;100.00;99037.91;4893345;29;20186;-84
2022/06/13 04:22:46;;;;;;;10.40;5.80;;;;;;;19.26;100.00;99019.84;4895538;29;20201;-84
2022/06/13 04:25:36;;;;;;;8.03;6.17;;;;;;;19.65;100.00;99033.66;4896035;29;20198;-84
2022/06/13 04:28:07;;;;;;;7.23;6.07;;;;;;;19.73;100.00;99032.81;4894970;29;20194;-83
2022/06/13 04:30:34;;;;;;;8.27;5.93;;;;;;;20.05;100.00;99044.84;4956173;28;20298;-83
2022/06/13 04:33:04;;;;;;;6.27;5.63;;;;;;;20.02;100.00;99053.41;4974246;28;20652;-83
2022/06/13 04:35:33;;;;;;;6.73;5.37;;;;;;;19.64;100.00;99001.16;4970543;28;20648;-84
2022/06/13 04:38:01;;;;;;;6.00;5.33;;;;;;;20.02;100.00;99051.66;4974364;28;20187;-83
2022/06/13 04:40:29;;;;;;;6.17;5.30;;;;;;;19.76;100.00;99019.13;4972722;28;20565;-84
2022/06/13 04:42:56;;;;;;;6.67;5.27;;;;;;;19.93;100.00;99028.56;4973391;28;20339;-84
2022/06/13 04:45:38;;;;;;;8.60;5.47;;;;;;;20.24;100.00;99060.28;4971816;28;20287;-84
2022/06/13 04:48:04;;;;;;;6.40;5.43;;;;;;;19.20;100.00;98886.38;4971817;28;20175;-84
2022/06/13 04:50:36;;;;;;;8.93;5.50;;;;;;;20.06;100.00;99011.41;4975615;28;20362;-83
2022/06/13 04:53:05;;;;;;;8.20;5.50;;;;;;;20.53;100.00;99058.53;4976710;28;20192;-83
2022/06/13 04:55:43;;;;;;;7.17;5.13;;;;;;;19.94;100.00;98953.16;4972445;28;20187;-84
2022/06/13 04:58:37;;;;;;;7.30;5.17;;;;;;;20.79;100.00;99065.34;4973235;28;20176;-83
2022/06/13 05:01:11;;;;;;;5.30;4.77;;;;;;;20.73;100.00;99029.34;4897243;29;20199;-84
2022/06/13 05:03:41;;;;;;;7.33;5.20;;;;;;;20.23;100.00;98942.84;4898211;29;20205;-83
2022/06/13 05:06:29;;;;;;;6.53;5.43;;;;;;;21.08;100.00;99035.25;4934467;29;20193;-84
2022/06/13 05:09:00;;;;;;;10.47;5.73;;;;;;;20.84;100.00;99009.59;4918284;29;20306;-85
2022/06/13 05:11:30;;;;;;;7.40;5.17;;;;;;;20.90;100.00;98973.53;4916493;29;20205;-83
2022/06/13 05:14:03;;;;;;;6.50;5.27;;;;;;;20.40;100.00;98932.56;4905087;29;20229;-85
2022/06/13 05:16:57;;;;;;;8.00;5.80;;;;;;;21.34;100.00;99064.34;4916918;29;20573;-83
2022/06/13 05:19:34;;;;;;;7.37;5.60;;;;;;;21.57;100.00;99064.19;4862304;29;20200;-84
2022/06/13 05:22:03;;;;;;;8.70;5.60;;;;;;;21.53;100.00;99076.25;4860699;29;20204;-83
2022/06/13 05:24:48;;;;;;;9.13;5.40;;;;;;;21.72;100.00;99046.06;4861367;29;20949;-83
2022/06/13 05:27:13;;;;;;;8.53;5.67;;;;;;;21.53;100.00;98978.38;4860447;29;20198;-82
2022/06/13 05:29:39;;;;;;;6.60;5.90;;;;;;;21.33;100.00;98951.00;4863629;29;20282;-82
2022/06/13 05:32:06;;;;;;;7.00;5.80;;;;;;;22.17;100.00;99075.81;4862847;29;20200;-84
2022/06/13 05:34:39;;;;;;;7.27;6.10;;;;;;;22.26;100.00;99076.63;4863661;29;20200;-85
2022/06/13 05:37:06;;;;;;;7.33;5.70;;;;;;;20.96;100.00;98885.97;4874110;29;20284;-84
2022/06/13 05:39:35;;;;;;;7.70;5.53;;;;;;;22.01;100.00;99074.25;4920611;29;20197;-84
2022/06/13 05:42:00;;;;;;;8.40;5.60;;;;;;;21.62;100.00;98973.13;4919831;29;20190;-83
2022/06/13 05:44:26;;;;;;;8.47;6.00;;;;;;;21.59;100.00;98937.06;4926289;29;20193;-84
2022/06/13 05:46:52;;;;;;;8.40;6.17;;;;;;;21.80;100.00;98963.53;4914246;29;20283;-84
2022/06/13 05:49:17;;;;;;;7.37;5.20;;;;;;;20.90;100.00;98850.00;4909600;29;20230;-84
2022/06/13 05:51:43;;;;;;;8.63;6.17;;;;;;;21.76;100.00;98935.22;4920502;29;20205;-84
2022/06/13 05:54:10;;;;;;;9.20;5.60;;;;;;;21.93;100.00;98965.19;4928666;29;20189;-85
2022/06/13 05:56:36;;;;;;;7.00;5.70;;;;;;;22.49;100.00;99067.81;4983341;28;20202;-86
2022/06/13 05:59:02;;;;;;;9.03;5.40;;;;;;;22.66;100.00;99065.97;5008874;28;20180;-87
2022/06/13 06:01:28;;;;;;;9.47;5.60;;;;;;;19.83;100.00;98654.31;5007496;28;20258;-87
2022/06/13 06:03:53;;;;;;;7.80;5.70;;;;;;;20.86;100.00;98740.25;4979029;28;20195;-85
2022/06/13 06:06:25;;;;;;;6.90;5.27;;;;;;;22.38;100.00;98990.53;5002625;28;20311;-84
2022/06/13 06:08:54;;;;;;;6.67;5.07;;;;;;;22.71;100.00;99066.78;5002492;28;20659;-84
2022/06/13 06:11:20;;;;;;;7.43;5.57;;;;;;;22.89;100.00;99062.28;5006012;28;20191;-85
2022/06/13 06:13:46;;;;;;;7.90;5.77;;;;;;;22.91;100.00;99069.97;4990581;28;20235;-85
2022/06/13 06:16:17;;;;;;;8.73;5.67;;;;;;;23.05;100.00;99075.84;4999474;28;20179;-85
2022/06/13 06:18:43;;;;;;;7.30;5.70;;;;;;;23.07;100.00;99081.88;4996242;28;20187;-85
2022/06/13 06:21:09;;;;;;;9.70;5.87;;;;;;;22.50;100.00;98997.28;4996776;28;20337;-84
2022/06/13 06:23:35;;;;;;;7.27;5.53;;;;;;;23.22;100.00;99073.06;4982849;28;20187;-84
2022/06/13 06:26:01;;;;;;;7.37;5.43;;;;;;;22.40;100.00;98934.63;4995448;28;20183;-84
2022/06/13 06:28:27;;;;;;;10.93;5.33;;;;;;;23.21;100.00;99073.97;4994631;28;20180;-83
2022/06/13 06:30:55;;;;;;;6.77;5.63;;;;;;;23.37;100.00;99078.97;4996422;28;20747;-85
2022/06/13 06:33:22;;;;;;;7.50;5.00;;;;;;;20.83;100.00;98655.34;4998759;28;20185;-85
2022/06/13 06:35:48;;;;;;;7.37;5.93;;;;;;;23.28;100.00;99042.00;4999201;28;20179;-86
2022/06/13 06:38:14;;;;;;;7.70;5.33;;;;;;;22.73;100.00;98880.06;4998859;28;20607;-86
2022/06/13 06:40:40;;;;;;;8.23;5.90;;;;;;;23.17;100.00;98964.66;4998002;28;20246;-85
2022/06/13 06:43:06;;;;;;;6.77;5.63;;;;;;;23.04;100.00;98916.66;4996465;28;20183;-85
2022/06/13 06:45:32;;;;;;;8.03;5.80;;;;;;;21.96;100.00;98728.00;4996933;28;20191;-85
2022/06/13 06:47:58;;;;;;;7.70;5.63;;;;;;;23.67;99.94;98976.88;4997006;28;20653;-84
2022/06/13 06:50:27;;;;;;;9.10;5.97;;;;;;;23.22;100.00;98928.44;5001124;28;20222;-83
2022/06/13 06:52:52;;;;;;;7.93;5.93;;;;;;;24.46;100.00;99074.72;5000780;28;20179;-85
2022/06/13 07:00:54;;;;;;;7.73;5.87;;;;;;;23.85;100.00;99085.16;4994620;28;20646;-84
2022/06/13 07:03:20;;;;;;;8.90;5.90;;;;;;;24.02;100.00;99059.06;4995318;28;20588;-86
2022/06/13 07:05:46;;;;;;;8.10;5.63;;;;;;;23.82;98.22;98979.19;4993200;28;20184;-86
2022/06/13 07:08:14;;;;;;;6.57;5.87;;;;;;;24.54;98.70;99064.25;5010832;28;20559;-84
2022/06/13 07:10:39;;;;;;;7.32;5.70;;;;;;;24.77;97.16;99092.31;5003630;28;20214;-86
2022/06/13 07:13:05;;;;;;;7.03;5.53;;;;;;;22.79;97.00;98793.94;4985119;28;20608;-85
2022/06/13 07:15:30;;;;;;;7.50;5.43;;;;;;;23.86;96.70;99001.56;4994794;28;20655;-85
2022/06/13 07:17:56;;;;;;;5.97;5.38;;;;;;;24.44;97.33;99073.91;4993474;28;20241;-85
2022/06/13 07:20:22;;;;;;;8.55;5.78;;;;;;;24.15;97.40;98961.44;4993222;28;20273;-84
2022/06/13 07:22:50;;;;;;;6.28;5.55;;;;;;;24.57;97.15;98986.53;4992256;28;21186;-85
2022/06/13 07:25:19;;;;;;;7.32;5.72;;;;;;;25.37;95.94;99080.78;4991567;28;20202;-85
2022/06/13 07:27:44;;;;;;;6.63;5.60;;;;;;;25.82;95.23;99099.72;4996035;28;20213;-83
2022/06/13 07:30:12;;;;;;;6.93;5.40;;;;;;;25.61;93.52;99064.72;4997597;28;20580;-83
2022/06/13 07:32:39;;;;;;;7.82;5.70;;;;;;;25.84;93.60;99097.94;4997745;28;20223;-83
2022/06/13 07:35:06;;;;;;;10.05;6.00;;;;;;;25.23;92.83;98985.19;5000822;28;20980;-83
2022/06/13 07:40:16;;;;;;;7.00;5.40;;;;;;;25.77;90.49;99075.59;4999890;28;20244;-85
2022/06/13 07:42:53;;;;;;;12.38;5.22;;;;;;;25.15;90.03;98943.03;5000851;28;20241;-84
2022/06/13 07:45:23;;;;;;;6.75;5.70;;;;;;;25.96;89.86;99089.84;5000216;28;20637;-83
2022/06/13 07:47:51;;;;;;;6.82;5.53;;;;;;;25.98;74.54;99080.31;5000349;28;20210;-85
2022/06/13 07:50:20;;;;;;;7.70;5.50;;;;;;;26.09;74.19;99096.47;5000021;28;20214;-84
2022/06/13 07:52:46;;;;;;;6.45;5.55;;;;;;;26.36;73.66;99093.25;4998523;28;20199;-83
2022/06/13 07:55:12;;;;;;;7.63;5.80;;;;;;;26.97;73.25;99064.84;4997531;28;20239;-83
2022/06/13 07:57:37;;;;;;;7.07;5.55;;;;;;;25.71;73.98;98852.75;5000004;28;20182;-83
2022/06/13 08:00:05;;;;;;;8.55;6.15;;;;;;;26.31;72.37;98935.91;4997368;28;20247;-84
2022/06/13 08:02:33;;;;;;;8.20;5.85;;;;;;;27.25;71.02;99073.56;4996810;28;20274;-86
2022/06/13 08:04:59;;;;;;;7.10;6.00;;;;;;;27.55;69.06;99041.50;4997713;28;20664;-83
2022/06/13 08:07:24;;;;;;;7.07;5.40;;;;;;;26.50;69.32;98925.88;5007394;28;20243;-83
2022/06/13 08:09:50;;;;;;;6.20;5.60;;;;;;;26.64;70.34;99076.97;5000085;28;20209;-83
2022/06/13 08:12:17;;;;;;;6.13;5.53;;;;;;;26.86;70.15;99073.75;4998362;28;20666;-83
2022/06/13 08:14:47;;;;;;;6.43;5.65;;;;;;;26.62;67.14;99048.41;4990150;28;20243;-82
2022/06/13 08:17:17;;;;;;;6.07;5.47;;;;;;;25.61;69.30;98866.81;5000597;28;20179;-84
2022/06/13 08:19:43;;;;;;;10.63;6.50;;;;;;;27.22;69.34;99084.88;4999467;28;20185;-83
2022/06/13 08:22:08;;;;;;;6.78;6.07;;;;;;;25.99;70.16;98851.09;4998618;28;20181;-83
2022/06/13 08:24:34;;;;;;;7.63;6.30;;;;;;;26.98;70.24;99087.31;4996524;28;20205;-83
2022/06/13 08:26:59;;;;;;;7.65;6.10;;;;;;;27.16;70.47;99086.81;5000632;28;20241;-82
2022/06/13 08:29:25;;;;;;;8.70;6.47;;;;;;;27.42;70.03;99051.41;4989412;28;20214;-83
2022/06/13 08:31:50;;;;;;;13.40;8.15;;;;;;;27.37;70.58;99050.66;4996315;28;20196;-84
2022/06/13 08:34:16;;;;;;;9.00;6.88;;;;;;;26.50;69.71;98897.31;4989251;28;20192;-83
2022/06/13 08:36:42;;;;;;;6.93;6.05;;;;;;;27.38;69.20;99000.38;5004695;28;20249;-83
2022/06/13 08:39:07;;;;;;;9.07;7.05;;;;;;;28.25;68.02;99089.59;5003907;28;20193;-83
2022/06/13 08:41:58;;;;;;;7.85;5.80;;;;;;;27.46;67.92;99078.19;5004447;28;20179;-87
2022/06/13 08:44:47;;;;;;;7.57;5.82;;;;;;;27.19;70.03;99090.19;5005499;28;20194;-84
2022/06/13 08:47:15;;;;;;;9.30;6.40;;;;;;;27.22;70.07;99081.47;5006827;28;20217;-84
2022/06/13 08:49:56;;;;;;;6.80;6.00;;;;;;;27.29;68.41;99013.63;5005438;28;20222;-84
2022/06/13 08:52:34;;;;;;;8.45;6.25;;;;;;;27.40;69.16;99092.22;5001965;28;20444;-84
2022/06/13 08:55:14;;;;;;;6.53;5.82;;;;;;;27.75;67.38;99079.88;5003695;28;20238;-84
2022/06/13 08:57:47;;;;;;;7.97;6.00;;;;;;;25.40;69.48;98720.44;4998812;28;20230;-84
2022/06/13 09:00:25;;;;;;;9.57;6.43;;;;;;;27.91;67.49;99078.50;4983214;28;20671;-84
2022/06/13 09:03:06;;;;;;;12.23;5.90;;;;;;;27.67;64.04;99011.63;5000396;28;20233;-84
2022/06/13 09:05:50;;;;;;;8.93;5.40;;;;;;;28.13;63.28;99024.06;5002124;28;20653;-84
2022/06/13 09:08:48;;;;;;;8.05;6.30;;;;;;;28.31;63.48;99101.56;4998310;28;20209;-84
2022/06/13 09:11:23;;;;;;;14.32;9.63;;;;;;;27.70;62.52;98938.69;4916023;29;20293;-86
2022/06/13 09:13:56;;;;;;;10.00;7.53;;;;;;;28.52;60.98;99103.44;4908483;29;20232;-85
2022/06/13 09:16:32;;;;;;;9.18;6.20;;;;;;;27.73;59.62;98923.84;4937048;29;20194;-83
2022/06/13 09:19:28;;;;;;;10.15;7.63;;;;;;;28.68;60.10;99097.69;4923236;29;20449;-86
2022/06/13 09:22:20;;;;;;;8.07;7.20;;;;;;;29.05;58.40;99067.72;4922890;29;21279;-84
2022/06/13 09:25:07;;;;;;;8.80;6.10;;;;;;;29.40;58.30;99098.59;4908818;29;20256;-83
2022/06/13 09:27:45;;;;;;;7.65;5.80;;;;;;;29.72;56.12;99050.44;4925043;29;21060;-84
2022/06/13 09:30:19;;;;;;;7.57;6.38;;;;;;;30.13;56.01;99109.72;4923102;29;20369;-84
2022/06/13 09:32:55;;;;;;;6.75;6.00;;;;;;;30.05;54.88;99110.94;4922115;29;20191;-86
2022/06/13 09:35:23;;;;;;;7.13;6.22;;;;;;;30.63;54.36;99104.22;4924572;29;20599;-86
2022/06/13 09:38:02;;;;;;;6.88;6.18;;;;;;;29.90;53.52;99018.38;4926270;29;20740;-84
2022/06/13 09:40:40;;;;;;;13.65;10.30;;;;;;;30.40;55.14;99094.72;4925494;29;20249;-85
2022/06/13 09:43:05;;;;;;;9.10;8.20;;;;;;;29.71;55.62;99103.53;4926235;29;20197;-85
2022/06/13 09:45:56;;;;;;;10.23;7.25;;;;;;;30.12;54.45;99105.41;4910630;29;20189;-85
2022/06/13 09:49:02;;;;;;;14.27;11.80;;;;;;;29.59;56.42;99101.38;4881395;29;20210;-84
2022/06/13 09:52:01;;;;;;;8.50;6.63;;;;;;;30.22;54.55;99098.88;4863109;29;20209;-84
2022/06/13 09:54:35;;;;;;;11.52;7.72;;;;;;;30.84;55.01;99098.91;4863417;29;20207;-85
2022/06/13 09:57:28;;;;;;;8.75;7.13;;;;;;;30.83;53.48;99099.81;4861278;29;20203;-84
2022/06/13 09:59:59;;;;;;;7.60;6.53;;;;;;;30.77;53.02;99093.97;4857205;29;20241;-85
2022/06/13 10:02:39;;;;;;;7.18;6.40;;;;;;;30.49;53.04;99089.06;4863136;29;20298;-85
2022/06/13 10:05:39;;;;;;;21.60;8.20;;;;;;;30.86;53.81;99093.59;4861964;29;20615;-85
2022/06/13 10:08:15;;;;;;;7.90;6.60;;;;;;;31.00;53.25;99090.41;4864415;29;20211;-84
2022/06/13 10:11:03;;;;;;;8.00;6.22;;;;;;;30.59;52.56;99019.84;4859235;29;21073;-85
2022/06/13 10:13:37;;;;;;;9.25;6.95;;;;;;;29.80;51.63;98897.81;4851988;29;20394;-84
2022/06/13 10:16:14;;;;;;;10.75;6.55;;;;;;;31.10;52.28;99084.69;4858880;29;20211;-84
2022/06/13 10:19:16;;;;;;;11.32;7.22;;;;;;;30.35;53.25;99087.00;4859815;29;20227;-86
2022/06/13 10:21:46;;;;;;;8.30;6.72;;;;;;;30.13;52.34;99080.13;4853491;29;20213;-84
2022/06/13 10:24:25;;;;;;;9.63;6.80;;;;;;;29.74;53.48;98981.59;4846854;29;20724;-85
2022/06/13 10:26:53;;;;;;;8.80;6.97;;;;;;;30.76;52.15;99080.09;4910196;29;20285;-85
2022/06/13 10:29:18;;;;;;;9.52;7.32;;;;;;;30.48;53.22;99074.31;4900678;29;20980;-85
2022/06/13 10:32:07;;;;;;;9.73;7.38;;;;;;;30.40;53.11;99073.81;4906036;29;20274;-85
2022/06/13 10:35:02;;;;;;;9.43;7.75;;;;;;;30.82;51.85;99069.34;4902812;29;20935;-85
2022/06/13 10:38:04;;;;;;;8.27;7.40;;;;;;;31.36;51.55;99057.38;4896379;29;20583;-85
2022/06/13 10:40:30;;;;;;;9.02;7.38;;;;;;;31.20;50.92;99059.00;4890948;29;20195;-86
2022/06/13 10:42:57;;;;;;;7.97;7.18;;;;;;;29.40;52.90;98870.81;4887003;29;20195;-86
2022/06/13 10:45:23;;;;;;;13.32;7.38;;;;;;;29.84;53.18;99049.97;4881830;29;20211;-85
2022/06/13 10:48:03;;;;;;;8.73;6.90;;;;;;;29.71;53.26;99049.56;4897941;29;20248;-85
2022/06/13 10:50:39;;;;;;;9.55;7.35;;;;;;;28.86;55.25;98905.09;4887627;29;20929;-85
2022/06/13 10:53:12;;;;;;;8.20;7.18;;;;;;;29.78;54.73;99006.66;4884142;29;20282;-86
2022/06/13 10:55:41;;;;;;;10.07;7.28;;;;;;;27.83;51.57;98643.38;4889523;29;20242;-85
2022/06/13 10:58:28;;;;;;;8.32;7.07;;;;;;;29.83;53.08;99041.28;4880351;29;20208;-86
2022/06/13 11:01:10;;;;;;;10.70;7.80;;;;;;;30.35;52.30;99033.94;4920222;29;20232;-85
2022/06/13 11:03:40;;;;;;;9.27;8.00;;;;;;;29.03;52.51;98840.13;4922829;29;20213;-85
2022/06/13 11:06:13;;;;;;;10.23;8.02;;;;;;;29.05;52.77;98794.00;4911496;29;20209;-85
2022/06/13 11:08:40;;;;;;;8.15;7.35;;;;;;;29.69;53.53;98939.19;4915608;29;20314;-85
2022/06/13 11:11:17;;;;;;;11.48;7.63;;;;;;;29.75;52.50;99025.03;4910212;29;20224;-85
2022/06/13 11:13:51;;;;;;;8.93;7.47;;;;;;;28.03;52.10;98690.34;4911399;28;20241;-85
2022/06/13 11:24:58;;;;;;;10.85;7.70;;;;;;;30.68;53.31;98959.34;4995959;28;20198;-84
2022/06/13 11:27:40;;;;;;;9.88;7.68;;;;;;;31.48;50.72;99007.13;4994903;28;20590;-84
2022/06/13 11:30:30;;;;;;;8.13;7.32;;;;;;;31.51;50.67;99004.31;4995465;28;20210;-84
2022/06/13 11:33:06;;;;;;;11.18;8.07;;;;;;;31.40;50.77;98998.72;4995192;28;20253;-84
2022/06/13 11:35:53;;;;;;;8.40;7.50;;;;;;;31.90;48.64;99005.03;4998951;28;20183;-85
2022/06/13 11:38:37;;;;;;;8.38;7.45;;;;;;;32.86;46.25;98982.63;4986530;28;20706;-84
2022/06/13 11:41:19;;;;;;;8.25;7.45;;;;;;;32.31;44.57;98863.25;4991970;28;20206;-84
2022/06/13 11:44:01;;;;;;;8.50;7.72;;;;;;;33.36;43.14;99002.69;4992236;28;20904;-83
2022/06/13 11:46:26;;;;;;;8.32;7.53;;;;;;;34.01;42.69;99002.47;4996518;28;20194;-85
2022/06/13 11:48:52;;;;;;;7.70;6.90;;;;;;;35.14;38.87;98992.13;4980812;28;20195;-84
2022/06/13 11:51:24;;;;;;;8.43;6.88;;;;;;;36.16;36.45;98999.53;4985413;28;20234;-83
2022/06/13 11:53:52;;;;;;;7.75;7.00;;;;;;;35.88;34.95;98989.09;4991879;28;20179;-84
2022/06/13 11:56:28;;;;;;;8.32;6.93;;;;;;;34.67;37.77;98976.63;4991027;28;20191;-84
2022/06/13 11:58:56;;;;;;;8.13;7.32;;;;;;;33.94;37.96;98977.50;4991904;28;21050;-83
2022/06/13 12:01:37;;;;;;;8.48;7.18;;;;;;;33.77;37.55;98974.97;4993847;28;20231;-85
2022/06/13 12:04:14;;;;;;;8.70;7.57;;;;;;;33.73;39.29;98976.13;4997330;28;20179;-83
2022/06/13 12:06:56;;;;;;;8.65;7.55;;;;;;;33.70;38.70;98942.13;4995686;28;20183;-87
2022/06/13 12:09:26;;;;;;;8.88;7.40;;;;;;;34.59;37.14;98957.84;4996241;28;20702;-87
2022/06/13 12:12:00;;;;;;;8.30;7.40;;;;;;;34.19;37.10;98961.16;4994576;28;20188;-86
2022/06/13 12:14:27;;;;;;;9.02;7.45;;;;;;;34.65;35.97;98956.63;4992004;28;20679;-85
2022/06/13 12:16:59;;;;;;;9.65;7.55;;;;;;;34.63;35.32;98869.09;4995254;28;20183;-85